Time;durP1;ratioP1;P1;durP2;ratioP2;P2;SDS_P1;SDS_P2;PMS_P1;PMS_P2;Temp;Humidity;BMP_temperature;BMP_pressure;BME280_temperature;BME280_humidity;BME280_pressure;Samples;Min_cycle;Max_cycle;Signal;HPM_P1;HPM_P2
2022/04/02 00:00:36;;;;;;;3.57;2.90;;;3.30;93.60;;;;;;4935828;29;20489;-77
2022/04/02 00:03:05;;;;;;;3.10;2.60;;;3.30;93.60;;;;;;4937040;29;20480;-77
2022/04/02 00:05:33;;;;;;;3.50;2.60;;;3.30;93.60;;;;;;4935771;29;20511;-77
2022/04/02 00:08:03;;;;;;;2.60;2.20;;;3.30;93.70;;;;;;4935844;29;20455;-77
2022/04/02 00:10:31;;;;;;;4.93;2.73;;;3.20;93.70;;;;;;4936705;29;20451;-77
2022/04/02 00:13:00;;;;;;;4.63;2.63;;;3.20;93.70;;;;;;4936468;29;20444;-77
2022/04/02 00:15:28;;;;;;;3.70;2.53;;;3.20;93.80;;;;;;4935602;29;20509;-76
2022/04/02 00:17:56;;;;;;;4.43;3.00;;;3.20;93.80;;;;;;4951650;29;20579;-77
2022/04/02 00:20:25;;;;;;;4.30;2.73;;;3.20;93.80;;;;;;4936728;29;20444;-78
2022/04/02 00:25:45;;;;;;;3.97;3.00;;;3.10;93.90;;;;;;4941646;28;20560;-77
2022/04/02 00:28:14;;;;;;;5.07;3.60;;;3.10;93.90;;;;;;4951381;29;20455;-77
2022/04/02 00:30:43;;;;;;;3.60;2.53;;;3.10;94.00;;;;;;4936451;29;21103;-77
2022/04/02 00:33:11;;;;;;;4.40;2.80;;;3.10;94.00;;;;;;4936618;29;20530;-77
2022/04/02 00:35:40;;;;;;;5.23;2.90;;;3.10;94.00;;;;;;4934790;29;20588;-76
2022/04/02 00:38:09;;;;;;;4.17;2.50;;;3.10;94.10;;;;;;4935180;29;20451;-77
2022/04/02 00:40:42;;;;;;;4.77;3.50;;;3.10;94.40;;;;;;4935153;29;20811;-77
2022/04/02 00:43:23;;;;;;;7.33;3.90;;;3.10;94.10;;;;;;4936346;29;20942;-77
2022/04/02 00:45:52;;;;;;;5.10;3.20;;;3.10;94.20;;;;;;4951008;29;20507;-77
2022/04/02 00:48:21;;;;;;;5.20;2.87;;;3.10;94.20;;;;;;4935056;29;20455;-77
2022/04/02 00:50:53;;;;;;;4.73;3.87;;;3.10;94.20;;;;;;4936350;29;20483;-77
2022/04/02 00:53:22;;;;;;;7.50;3.53;;;3.10;94.40;;;;;;4935274;29;20518;-78
2022/04/02 00:55:53;;;;;;;6.40;4.10;;;3.10;94.30;;;;;;4934472;29;20475;-76
2022/04/02 00:58:25;;;;;;;5.20;4.00;;;3.10;94.30;;;;;;4935072;29;20526;-77
2022/04/02 01:00:54;;;;;;;4.90;3.90;;;3.10;94.40;;;;;;4935072;29;20467;-77
2022/04/02 01:03:25;;;;;;;5.13;3.93;;;3.10;94.40;;;;;;4935219;29;20534;-77
2022/04/02 01:05:54;;;;;;;5.37;3.60;;;3.10;94.40;;;;;;4934839;29;20483;-78
2022/04/02 01:08:25;;;;;;;5.73;3.80;;;3.10;94.50;;;;;;4935207;29;20557;-77
2022/04/02 01:10:56;;;;;;;4.63;3.30;;;3.10;94.50;;;;;;4934940;29;20827;-77
2022/04/02 01:13:27;;;;;;;5.30;3.17;;;3.10;94.50;;;;;;4934932;29;20444;-77
2022/04/02 01:15:57;;;;;;;4.90;3.40;;;3.10;94.60;;;;;;4934909;29;20838;-77
2022/04/02 01:18:26;;;;;;;5.70;4.33;;;3.10;94.60;;;;;;4934762;29;20477;-77
2022/04/02 01:20:55;;;;;;;6.20;3.60;;;3.00;94.70;;;;;;4934761;29;20460;-77
2022/04/02 01:23:32;;;;;;;3.33;3.00;;;3.00;94.70;;;;;;4935682;29;20442;-77
2022/04/02 01:26:08;;;;;;;6.77;4.10;;;3.00;94.70;;;;;;4934691;29;20539;-77
2022/04/02 01:28:43;;;;;;;5.67;3.77;;;3.00;94.70;;;;;;4930028;29;20459;-77
2022/04/02 01:31:18;;;;;;;7.10;4.47;;;3.00;94.80;;;;;;4934542;29;20339;-77
2022/04/02 01:33:48;;;;;;;5.17;4.67;;;3.00;94.80;;;;;;4936139;29;20250;-77
2022/04/02 01:36:17;;;;;;;5.67;3.77;;;3.00;94.80;;;;;;4938408;29;20863;-77
2022/04/02 01:38:55;;;;;;;5.17;4.00;;;3.00;94.90;;;;;;4938625;29;20458;-77
2022/04/02 01:41:27;;;;;;;3.80;2.80;;;3.00;94.90;;;;;;4938748;29;20968;-77
2022/04/02 01:43:56;;;;;;;4.10;3.23;;;3.00;95.00;;;;;;4938273;29;20491;-77
2022/04/02 01:46:25;;;;;;;6.30;4.00;;;3.00;95.00;;;;;;4938146;29;20573;-78
2022/04/02 01:48:55;;;;;;;4.03;3.10;;;3.00;95.10;;;;;;4954245;29;20510;-78
2022/04/02 01:51:23;;;;;;;5.13;3.23;;;2.90;95.00;;;;;;4928806;29;20474;-77
2022/04/02 01:53:52;;;;;;;4.00;3.17;;;2.90;95.10;;;;;;4938031;29;20513;-77
2022/04/02 01:56:22;;;;;;;4.77;3.13;;;2.90;95.10;;;;;;4937955;29;20463;-77
2022/04/02 01:58:55;;;;;;;4.90;2.73;;;2.90;95.10;;;;;;4938091;29;20554;-77
2022/04/02 02:01:27;;;;;;;6.97;3.03;;;2.90;95.20;;;;;;4954398;28;20463;-78
2022/04/02 02:03:56;;;;;;;6.27;3.37;;;2.80;95.20;;;;;;4937852;29;20518;-77
2022/04/02 02:06:26;;;;;;;5.30;3.30;;;2.80;95.20;;;;;;4919622;29;20894;-77
2022/04/02 02:08:55;;;;;;;5.93;3.77;;;2.80;95.20;;;;;;4943246;29;20547;-77
2022/04/02 02:11:43;;;;;;;4.10;3.30;;;2.80;95.20;;;;;;4937239;29;20822;-77
2022/04/02 02:14:38;;;;;;;4.90;2.70;;;2.80;95.30;;;;;;4934989;29;20489;-78
2022/04/02 02:17:15;;;;;;;4.60;2.93;;;2.70;95.30;;;;;;4944134;29;20544;-78
2022/04/02 02:19:48;;;;;;;5.53;3.13;;;2.70;95.30;;;;;;4937584;29;21039;-77
2022/04/02 02:22:16;;;;;;;5.63;4.10;;;2.70;95.40;;;;;;4937508;29;20500;-78
2022/04/02 02:24:44;;;;;;;4.70;3.53;;;2.70;95.40;;;;;;4938668;29;20458;-77
2022/04/02 02:27:14;;;;;;;4.10;3.33;;;2.70;95.50;;;;;;4937325;29;20475;-78
2022/04/02 02:29:42;;;;;;;6.03;3.70;;;2.70;95.50;;;;;;4937345;29;20509;-77
2022/04/02 02:32:20;;;;;;;4.60;3.73;;;2.70;95.60;;;;;;4935231;29;20464;-77
2022/04/02 02:37:37;;;;;;;5.07;3.53;;;2.70;95.60;;;;;;4937957;29;20450;-78
2022/04/02 02:40:11;;;;;;;4.17;3.33;;;2.70;95.70;;;;;;4937348;29;20451;-78
2022/04/02 02:42:41;;;;;;;5.90;4.07;;;2.70;95.70;;;;;;4937294;29;20450;-77
2022/04/02 02:45:32;;;;;;;5.03;3.13;;;2.70;95.80;;;;;;4936359;29;20615;-77
2022/04/02 02:48:04;;;;;;;4.17;3.53;;;2.70;95.70;;;;;;4937009;29;20554;-78
2022/04/02 02:50:44;;;;;;;5.50;3.97;;;2.70;95.80;;;;;;4937250;29;20451;-77
2022/04/02 02:53:15;;;;;;;5.63;4.10;;;2.70;95.80;;;;;;4919820;29;20881;-77
2022/04/02 02:55:45;;;;;;;4.50;3.77;;;2.70;95.80;;;;;;4924133;29;21020;-77
2022/04/02 02:58:14;;;;;;;6.00;3.63;;;2.60;95.80;;;;;;4937030;29;20573;-78
2022/04/02 03:00:43;;;;;;;5.60;4.27;;;2.70;95.80;;;;;;4937093;29;20450;-78
2022/04/02 03:03:19;;;;;;;4.63;3.93;;;2.70;95.90;;;;;;4936971;29;20499;-77
2022/04/02 03:05:50;;;;;;;11.70;5.50;;;2.70;95.90;;;;;;4937178;29;20571;-77
2022/04/02 03:08:20;;;;;;;7.63;5.20;;;2.70;95.90;;;;;;4936890;29;20471;-77
2022/04/02 03:10:54;;;;;;;8.47;6.47;;;2.70;96.00;;;;;;4936369;29;20980;-76
2022/04/02 03:13:28;;;;;;;8.00;6.03;;;2.70;96.00;;;;;;4936687;29;20472;-77
2022/04/02 03:16:08;;;;;;;8.57;5.93;;;2.70;96.00;;;;;;4936796;29;20537;-78
2022/04/02 03:18:47;;;;;;;8.97;6.40;;;2.70;96.00;;;;;;4936754;29;20488;-77
2022/04/02 03:21:19;;;;;;;8.70;5.47;;;2.70;96.10;;;;;;4936685;29;20448;-77
2022/04/02 03:23:48;;;;;;;7.47;5.00;;;2.70;96.10;;;;;;4936879;29;20463;-78
2022/04/02 03:26:20;;;;;;;6.93;4.73;;;2.70;96.10;;;;;;4956154;28;20438;-77
2022/04/02 03:28:51;;;;;;;7.07;3.70;;;2.70;96.10;;;;;;4947226;29;20464;-77
2022/04/02 03:31:22;;;;;;;5.80;4.40;;;2.70;96.10;;;;;;4953229;29;20454;-77
2022/04/02 03:33:53;;;;;;;5.60;4.50;;;2.70;96.20;;;;;;4955542;29;20452;-77
2022/04/02 03:36:21;;;;;;;5.53;3.97;;;2.70;96.50;;;;;;4955980;29;20475;-77
2022/04/02 03:38:50;;;;;;;6.80;4.30;;;2.70;96.20;;;;;;4954148;29;20549;-77
2022/04/02 03:41:19;;;;;;;5.83;4.03;;;2.60;96.20;;;;;;4940208;29;20458;-77
2022/04/02 03:43:53;;;;;;;4.93;3.70;;;2.60;96.20;;;;;;4940229;29;20460;-77
2022/04/02 03:49:14;;;;;;;4.93;3.77;;;2.60;96.20;;;;;;4936899;29;20984;-77
2022/04/02 03:51:44;;;;;;;13.83;4.47;;;2.60;96.30;;;;;;4936639;29;20506;-77
2022/04/02 03:54:17;;;;;;;5.37;3.80;;;2.60;96.40;;;;;;4936225;29;20991;-77
2022/04/02 03:56:51;;;;;;;4.67;3.47;;;2.50;96.30;;;;;;4936389;29;20445;-77
2022/04/02 03:59:20;;;;;;;5.50;3.77;;;2.50;96.30;;;;;;4935916;29;20965;-78
2022/04/02 04:01:53;;;;;;;3.97;3.50;;;2.50;96.40;;;;;;4934048;29;20466;-76
2022/04/02 04:04:24;;;;;;;5.73;3.80;;;2.50;96.50;;;;;;4935859;29;20957;-77
2022/04/02 04:06:54;;;;;;;5.47;4.60;;;2.40;96.50;;;;;;4951890;29;20541;-77
2022/04/02 04:09:22;;;;;;;5.40;3.50;;;2.40;96.50;;;;;;4935672;29;20522;-77
2022/04/02 04:11:53;;;;;;;7.50;4.13;;;2.40;96.50;;;;;;4935822;29;20445;-77
2022/04/02 04:14:26;;;;;;;5.40;4.63;;;2.40;96.50;;;;;;4935584;29;20580;-77
2022/04/02 04:16:55;;;;;;;5.10;4.17;;;2.30;96.50;;;;;;4935632;29;20455;-78
2022/04/02 04:19:24;;;;;;;5.70;3.90;;;2.30;96.60;;;;;;4935588;29;21025;-77
2022/04/02 04:21:54;;;;;;;5.87;4.30;;;2.30;96.60;;;;;;4937016;29;20932;-77
2022/04/02 04:24:24;;;;;;;4.63;4.13;;;2.30;96.60;;;;;;4935467;29;20562;-77
2022/04/02 04:26:54;;;;;;;5.23;4.40;;;2.30;96.70;;;;;;4935367;29;20463;-78
2022/04/02 04:29:23;;;;;;;5.23;4.37;;;2.20;96.60;;;;;;4935667;29;20525;-77
2022/04/02 04:31:53;;;;;;;4.80;3.70;;;2.20;96.70;;;;;;4935005;29;20453;-77
2022/04/02 04:34:21;;;;;;;4.20;3.80;;;2.20;96.80;;;;;;4935176;29;20483;-76
2022/04/02 04:36:50;;;;;;;6.00;3.90;;;2.20;96.70;;;;;;4935220;29;20447;-77
2022/04/02 04:39:18;;;;;;;5.00;4.47;;;2.10;96.80;;;;;;4935204;29;20859;-78
2022/04/02 04:41:48;;;;;;;7.63;4.60;;;2.10;96.80;;;;;;4935383;29;20451;-77
2022/04/02 04:44:17;;;;;;;6.07;4.03;;;2.10;96.80;;;;;;4935268;29;20483;-77
2022/04/02 04:46:48;;;;;;;5.73;4.13;;;2.10;96.80;;;;;;4936422;29;20843;-77
2022/04/02 04:49:19;;;;;;;4.87;4.20;;;2.10;97.20;;;;;;4935113;29;20821;-77
2022/04/02 04:52:03;;;;;;;7.27;4.47;;;2.10;96.90;;;;;;4935132;29;20447;-77
2022/04/02 04:54:33;;;;;;;4.70;4.20;;;2.00;97.00;;;;;;4935113;29;20503;-77
2022/04/02 04:57:06;;;;;;;6.13;4.67;;;2.00;97.10;;;;;;4933090;29;20455;-77
2022/04/02 04:59:34;;;;;;;5.77;4.80;;;2.00;97.10;;;;;;4950992;29;20479;-77
2022/04/02 05:02:03;;;;;;;8.40;5.07;;;2.00;97.10;;;;;;4935204;29;20466;-77
2022/04/02 05:04:35;;;;;;;7.00;5.27;;;2.00;97.20;;;;;;4934862;29;20536;-77
2022/04/02 05:07:05;;;;;;;4.97;4.40;;;2.00;97.20;;;;;;4935020;29;20473;-78
2022/04/02 05:09:34;;;;;;;5.90;4.83;;;1.90;97.20;;;;;;4936281;29;20477;-77
2022/04/02 05:12:07;;;;;;;7.77;4.90;;;1.90;97.30;;;;;;4938990;29;20490;-77
2022/04/02 05:14:39;;;;;;;5.90;5.30;;;1.90;97.30;;;;;;4939821;29;20492;-77
2022/04/02 05:17:14;;;;;;;7.47;5.83;;;1.90;97.30;;;;;;4955123;29;20456;-77
2022/04/02 05:19:44;;;;;;;6.20;5.13;;;1.90;97.40;;;;;;4938450;29;20552;-78
2022/04/02 05:22:12;;;;;;;7.63;4.60;;;1.90;97.40;;;;;;4938610;29;20977;-77
2022/04/02 05:24:47;;;;;;;5.63;4.40;;;1.90;97.50;;;;;;4919719;29;20482;-78
2022/04/02 05:27:16;;;;;;;6.70;5.73;;;1.90;97.50;;;;;;4935519;29;20833;-77
2022/04/02 05:29:46;;;;;;;5.90;4.93;;;1.90;97.60;;;;;;4935377;29;20542;-78
2022/04/02 05:32:14;;;;;;;6.87;5.20;;;1.90;97.70;;;;;;4938831;29;20451;-78
2022/04/02 05:34:44;;;;;;;6.00;5.03;;;1.90;97.70;;;;;;4937196;29;20479;-76
2022/04/02 05:37:13;;;;;;;6.60;5.20;;;1.90;97.70;;;;;;4938388;29;20451;-78
2022/04/02 05:39:43;;;;;;;6.60;5.57;;;1.90;97.80;;;;;;4938431;29;20456;-77
2022/04/02 05:42:12;;;;;;;7.43;5.50;;;1.90;97.90;;;;;;4938335;29;20549;-77
2022/04/02 05:44:41;;;;;;;5.53;4.87;;;1.90;97.90;;;;;;4938214;29;20483;-77
2022/04/02 05:47:10;;;;;;;6.53;4.87;;;1.90;97.90;;;;;;4938346;29;20476;-77
2022/04/02 05:49:48;;;;;;;5.73;5.07;;;2.00;98.00;;;;;;4939303;29;20478;-78
2022/04/02 05:52:16;;;;;;;7.93;6.50;;;2.00;98.00;;;;;;4938160;29;20825;-77
2022/04/02 05:54:45;;;;;;;7.67;6.37;;;2.00;98.00;;;;;;4937928;29;20818;-77
2022/04/02 05:57:13;;;;;;;8.03;5.50;;;2.00;98.10;;;;;;4929254;29;20461;-77
2022/04/02 05:59:42;;;;;;;8.43;6.00;;;2.10;98.20;;;;;;4932350;29;20553;-77
2022/04/02 06:02:13;;;;;;;12.47;5.90;;;2.10;98.20;;;;;;4938685;29;20459;-77
2022/04/02 06:04:41;;;;;;;9.60;7.43;;;2.10;98.20;;;;;;4936297;29;20506;-77
2022/04/02 06:07:11;;;;;;;7.83;7.00;;;2.10;98.20;;;;;;4937895;29;20990;-77
2022/04/02 06:09:40;;;;;;;9.03;6.50;;;2.20;98.30;;;;;;4939115;29;20505;-77
2022/04/02 06:12:08;;;;;;;6.77;5.00;;;2.20;98.30;;;;;;4953242;28;20526;-77
2022/04/02 06:14:37;;;;;;;10.07;5.60;;;2.30;98.40;;;;;;4938931;29;20496;-77
2022/04/02 06:17:05;;;;;;;7.23;5.57;;;2.30;98.30;;;;;;4925278;29;20456;-78
2022/04/02 06:19:33;;;;;;;5.53;4.77;;;2.40;98.40;;;;;;4925132;29;20466;-77
2022/04/02 06:22:06;;;;;;;6.00;4.67;;;2.40;98.40;;;;;;4938743;29;20451;-77
2022/04/02 06:24:36;;;;;;;6.17;4.73;;;2.40;98.40;;;;;;4938112;29;20535;-77
2022/04/02 06:27:05;;;;;;;5.37;4.87;;;2.50;98.40;;;;;;4938006;29;21090;-77
2022/04/02 06:29:35;;;;;;;6.37;4.80;;;2.50;98.50;;;;;;4921614;29;20960;-78
2022/04/02 06:32:03;;;;;;;7.70;4.53;;;2.60;98.50;;;;;;4953578;29;20968;-77
2022/04/02 06:34:31;;;;;;;5.70;5.10;;;2.60;98.50;;;;;;4937436;29;20470;-78
2022/04/02 06:37:00;;;;;;;6.77;4.20;;;2.70;98.80;;;;;;4937549;29;20451;-77
2022/04/02 06:39:28;;;;;;;5.50;4.80;;;2.70;98.50;;;;;;4937552;29;20538;-77
2022/04/02 06:41:58;;;;;;;7.03;5.20;;;2.80;98.60;;;;;;4953298;29;20465;-77
2022/04/02 06:44:37;;;;;;;7.53;5.17;;;2.80;98.60;;;;;;4936699;29;20475;-77
2022/04/02 06:47:06;;;;;;;7.40;5.63;;;2.90;98.60;;;;;;4938392;29;20450;-78
2022/04/02 06:49:34;;;;;;;7.87;5.27;;;2.90;98.60;;;;;;4937002;29;20570;-77
2022/04/02 06:52:03;;;;;;;7.30;4.63;;;3.00;98.60;;;;;;4937178;29;20529;-77
2022/04/02 06:54:31;;;;;;;7.73;5.30;;;3.00;98.90;;;;;;4937084;29;20474;-78
2022/04/02 06:57:00;;;;;;;6.13;5.53;;;3.10;98.60;;;;;;4938570;29;20451;-77
2022/04/02 06:59:29;;;;;;;6.30;4.80;;;3.20;98.60;;;;;;4938584;29;20458;-77
2022/04/02 07:02:05;;;;;;;9.30;6.20;;;3.20;98.60;;;;;;4954024;28;20458;-77
2022/04/02 07:04:33;;;;;;;7.90;5.60;;;3.30;98.70;;;;;;4937274;29;20604;-78
2022/04/02 07:07:01;;;;;;;5.80;5.20;;;3.40;98.70;;;;;;4937018;29;20569;-78
2022/04/02 07:09:30;;;;;;;6.93;5.20;;;3.50;98.60;;;;;;4937941;29;20561;-76
2022/04/02 07:11:59;;;;;;;5.50;4.33;;;3.60;98.60;;;;;;4930139;29;20891;-76
2022/04/02 07:14:28;;;;;;;5.40;4.53;;;3.70;98.40;;;;;;4917912;29;20475;-77
2022/04/02 07:16:56;;;;;;;6.00;4.00;;;3.80;98.30;;;;;;4933776;29;20455;-77
2022/04/02 07:19:26;;;;;;;4.90;3.90;;;3.80;98.20;;;;;;4938199;29;20448;-76
2022/04/02 07:21:55;;;;;;;4.57;3.50;;;3.90;98.00;;;;;;4936749;29;20457;-76
2022/04/02 07:24:24;;;;;;;4.93;3.30;;;4.00;97.90;;;;;;4936508;29;20538;-76
2022/04/02 07:26:56;;;;;;;4.70;3.33;;;4.00;97.80;;;;;;4936670;29;20451;-76
2022/04/02 07:29:27;;;;;;;5.77;3.20;;;4.10;97.70;;;;;;4936442;29;20518;-76
2022/04/02 07:31:55;;;;;;;5.83;3.73;;;4.10;97.60;;;;;;4935940;29;20546;-76
2022/04/02 07:34:26;;;;;;;6.73;4.73;;;4.20;97.60;;;;;;4934466;29;20476;-76
2022/04/02 07:37:05;;;;;;;4.80;4.30;;;4.30;97.50;;;;;;4936553;29;20458;-76
2022/04/02 07:39:42;;;;;;;5.07;4.57;;;4.40;97.50;;;;;;4936517;29;20475;-76
2022/04/02 07:42:20;;;;;;;5.40;4.47;;;4.50;97.40;;;;;;4936615;29;20459;-76
2022/04/02 07:44:59;;;;;;;7.70;4.00;;;4.60;97.40;;;;;;4936115;29;20566;-79
2022/04/02 07:47:31;;;;;;;4.67;3.90;;;4.70;97.40;;;;;;4933327;29;20868;-76
2022/04/02 07:50:03;;;;;;;6.43;3.90;;;4.90;97.40;;;;;;4917308;29;20508;-76
2022/04/02 07:52:32;;;;;;;5.00;4.43;;;5.00;97.30;;;;;;4917273;29;20468;-77
2022/04/02 07:55:06;;;;;;;5.10;4.43;;;5.10;97.10;;;;;;4935956;29;20493;-74
2022/04/02 07:57:40;;;;;;;4.00;2.93;;;5.30;97.10;;;;;;4936824;29;20483;-76
2022/04/02 08:00:11;;;;;;;5.97;3.77;;;5.40;97.00;;;;;;4936515;29;20544;-76
2022/04/02 08:02:42;;;;;;;4.10;3.50;;;5.60;96.90;;;;;;4936325;29;20522;-76
2022/04/02 08:05:16;;;;;;;4.77;4.03;;;5.60;96.70;;;;;;4936365;29;21015;-76
2022/04/02 08:07:49;;;;;;;5.00;4.33;;;5.70;96.60;;;;;;4936223;29;20502;-76
2022/04/02 08:10:20;;;;;;;6.10;4.17;;;5.90;96.60;;;;;;4936258;29;20479;-75
2022/04/02 08:12:51;;;;;;;4.20;3.80;;;5.90;96.50;;;;;;4951658;29;20476;-76
2022/04/02 08:15:22;;;;;;;4.37;3.93;;;6.10;96.70;;;;;;4949937;29;20518;-76
2022/04/02 08:17:56;;;;;;;5.27;4.20;;;6.20;96.40;;;;;;4941018;29;20510;-76
2022/04/02 08:20:25;;;;;;;5.50;3.80;;;6.30;96.50;;;;;;4936706;29;20455;-77
2022/04/02 08:22:56;;;;;;;4.80;3.57;;;6.40;96.40;;;;;;4937269;29;20937;-77
2022/04/02 08:25:24;;;;;;;4.60;3.70;;;6.50;96.30;;;;;;4951802;29;20476;-77
2022/04/02 08:28:04;;;;;;;3.70;3.33;;;6.60;96.20;;;;;;4937389;29;20871;-77
2022/04/02 08:30:36;;;;;;;3.50;2.67;;;6.80;96.20;;;;;;4936920;29;20481;-77
2022/04/02 08:33:29;;;;;;;3.70;2.57;;;6.90;95.80;;;;;;4937371;29;20426;-76
2022/04/02 08:36:04;;;;;;;3.77;2.50;;;6.90;95.30;;;;;;4935577;29;20468;-78
2022/04/02 08:38:41;;;;;;;3.80;2.77;;;7.00;95.30;;;;;;4935591;29;20503;-78
2022/04/02 08:41:57;;;;;;;5.20;3.40;;;7.00;94.90;;;;;;4937473;29;20781;-77
2022/04/02 08:45:04;;;;;;;5.20;3.00;;;7.10;94.50;;;;;;4923038;29;20478;-77
2022/04/02 08:48:27;;;;;;;2.83;2.27;;;7.20;94.70;;;;;;4935390;29;20493;-77
2022/04/02 08:51:13;;;;;;;4.10;3.13;;;7.30;94.00;;;;;;4935858;29;20486;-77
2022/04/02 08:53:50;;;;;;;3.40;2.53;;;7.40;94.20;;;;;;4935220;29;20605;-78
2022/04/02 08:56:24;;;;;;;2.77;2.30;;;7.40;94.00;;;;;;4935252;29;20446;-77
2022/04/02 08:59:00;;;;;;;3.80;2.43;;;7.40;93.50;;;;;;4935421;29;20445;-77
2022/04/02 09:01:38;;;;;;;4.43;2.80;;;7.30;93.20;;;;;;4935226;29;20453;-77
2022/04/02 09:04:39;;;;;;;5.77;3.57;;;7.30;93.30;;;;;;4935204;29;20476;-77
2022/04/02 09:07:43;;;;;;;3.27;2.50;;;7.50;93.50;;;;;;4916647;29;20952;-77
2022/04/02 09:11:04;;;;;;;2.90;2.60;;;7.50;93.00;;;;;;4922784;29;20912;-77
2022/04/02 09:14:09;;;;;;;4.00;2.83;;;7.60;92.80;;;;;;4877667;29;20464;-77
2022/04/02 09:17:01;;;;;;;3.23;2.77;;;7.70;92.50;;;;;;4950937;28;20458;-77
2022/04/02 09:19:52;;;;;;;2.30;2.10;;;7.80;92.70;;;;;;4935119;29;20463;-77
2022/04/02 09:22:35;;;;;;;4.03;2.20;;;7.90;92.40;;;;;;4935090;29;20498;-76
2022/04/02 09:25:44;;;;;;;3.40;2.40;;;7.90;92.30;;;;;;4936489;29;20467;-77
2022/04/02 09:28:34;;;;;;;9.70;3.30;;;8.00;92.10;;;;;;4950847;29;20501;-77
2022/04/02 09:31:34;;;;;;;3.33;2.07;;;8.00;92.00;;;;;;4934741;29;20483;-77
2022/04/02 09:34:40;;;;;;;2.67;2.23;;;8.00;91.60;;;;;;4935023;29;20454;-77
2022/04/02 09:37:16;;;;;;;3.50;2.47;;;7.90;91.20;;;;;;4946490;29;20463;-77
2022/04/02 09:39:54;;;;;;;3.00;2.40;;;7.70;91.30;;;;;;4947685;29;20472;-77
2022/04/02 09:42:37;;;;;;;2.63;1.97;;;7.60;91.40;;;;;;4915997;29;20452;-77
2022/04/02 09:45:10;;;;;;;2.67;1.90;;;7.60;91.20;;;;;;4931411;28;20486;-77
2022/04/02 09:48:06;;;;;;;2.77;2.23;;;7.60;91.20;;;;;;4936348;29;20436;-77
2022/04/02 09:50:39;;;;;;;2.90;1.90;;;7.70;90.70;;;;;;4915717;29;21025;-77
2022/04/02 09:53:15;;;;;;;3.03;2.43;;;7.80;90.70;;;;;;4916980;29;20479;-77
2022/04/02 09:55:52;;;;;;;2.73;1.83;;;7.80;90.40;;;;;;4933109;29;20479;-78
2022/04/02 09:59:09;;;;;;;2.60;2.40;;;7.80;90.20;;;;;;4935985;29;20546;-77
2022/04/02 10:01:43;;;;;;;4.23;2.73;;;7.90;89.70;;;;;;4925229;29;20450;-76
2022/04/02 10:04:39;;;;;;;3.43;2.20;;;7.80;89.80;;;;;;4939557;29;20500;-76
2022/04/02 10:07:18;;;;;;;4.13;2.20;;;7.80;89.10;;;;;;4934991;29;20522;-77
2022/04/02 10:09:50;;;;;;;2.80;2.30;;;7.80;89.80;;;;;;4920407;29;20530;-77
2022/04/02 10:12:19;;;;;;;3.53;2.20;;;7.80;89.50;;;;;;4920599;29;21036;-77
2022/04/02 10:14:56;;;;;;;2.60;2.00;;;7.80;89.60;;;;;;4920060;29;20467;-77
2022/04/02 10:17:28;;;;;;;2.57;1.90;;;7.90;88.90;;;;;;4918951;29;20465;-77
2022/04/02 10:19:58;;;;;;;2.90;1.93;;;7.90;88.30;;;;;;4926035;29;20454;-77
2022/04/02 10:22:39;;;;;;;2.90;1.87;;;7.90;87.70;;;;;;4937334;29;20979;-76
2022/04/02 10:25:11;;;;;;;3.00;1.83;;;7.90;87.30;;;;;;4937594;29;20482;-77
2022/04/02 10:27:41;;;;;;;2.70;1.80;;;8.00;87.50;;;;;;4937658;29;20457;-77
2022/04/02 10:30:11;;;;;;;2.60;2.00;;;8.00;86.80;;;;;;4937599;29;20462;-77
2022/04/02 10:32:54;;;;;;;2.37;1.93;;;8.00;86.90;;;;;;4953522;29;20529;-77
2022/04/02 10:35:24;;;;;;;3.13;2.50;;;8.00;86.70;;;;;;4939166;29;20490;-77
2022/04/02 10:38:05;;;;;;;3.53;2.30;;;8.00;86.70;;;;;;4938836;28;20486;-77
2022/04/02 10:40:39;;;;;;;2.80;2.50;;;8.00;86.40;;;;;;4936665;29;20451;-77
2022/04/02 10:43:20;;;;;;;2.53;2.13;;;8.00;85.90;;;;;;4938465;29;20509;-77
2022/04/02 10:45:49;;;;;;;2.60;2.00;;;8.00;85.20;;;;;;4937219;29;20471;-77
2022/04/02 10:48:25;;;;;;;2.17;1.70;;;8.00;85.00;;;;;;4937331;29;20452;-77
2022/04/02 10:50:55;;;;;;;2.60;2.20;;;8.10;85.30;;;;;;4936126;29;20485;-77
2022/04/02 10:53:28;;;;;;;3.80;2.50;;;8.10;85.60;;;;;;4937113;29;20989;-77
2022/04/02 10:56:01;;;;;;;2.50;2.00;;;8.10;85.40;;;;;;4938613;29;20470;-78
2022/04/02 10:58:36;;;;;;;3.77;2.93;;;8.20;85.30;;;;;;4953136;29;20506;-78
2022/04/02 11:01:06;;;;;;;4.00;2.50;;;8.20;85.10;;;;;;4938677;29;20439;-77
2022/04/02 11:03:40;;;;;;;5.10;4.37;;;8.10;84.70;;;;;;4937017;29;20458;-77
2022/04/02 11:06:11;;;;;;;4.37;3.87;;;8.00;84.60;;;;;;4951907;29;21015;-76
2022/04/02 11:08:41;;;;;;;5.63;5.03;;;8.00;84.50;;;;;;4952408;28;20457;-77
2022/04/02 11:11:18;;;;;;;4.53;2.80;;;8.00;84.50;;;;;;4936917;29;20552;-77
2022/04/02 11:13:46;;;;;;;3.13;2.10;;;8.10;84.60;;;;;;4937179;29;20482;-77
2022/04/02 11:16:15;;;;;;;2.90;2.27;;;8.10;84.40;;;;;;4936923;29;20494;-77
2022/04/02 11:19:53;;;;;;;2.50;1.90;;;8.20;83.60;;;;;;4938356;29;20495;-77
2022/04/02 11:21:48;;;;;;;2.80;1.77;;;8.20;83.60;;;;;;4936313;29;20448;-77
2022/04/02 11:24:23;;;;;;;3.17;2.23;;;8.10;82.90;;;;;;4936655;29;20825;-78
2022/04/02 11:26:54;;;;;;;5.27;2.90;;;8.10;82.50;;;;;;4936752;29;20467;-77
2022/04/02 11:29:25;;;;;;;3.17;2.37;;;8.00;82.60;;;;;;4930715;29;20557;-77
2022/04/02 11:31:56;;;;;;;4.57;2.00;;;7.90;82.40;;;;;;4917514;29;20480;-78
2022/04/02 11:34:29;;;;;;;2.27;1.70;;;7.80;82.40;;;;;;4923686;29;20479;-77
2022/04/02 11:37:03;;;;;;;2.10;1.73;;;7.80;82.30;;;;;;4937604;29;20834;-76
2022/04/02 11:39:37;;;;;;;7.13;2.10;;;7.80;82.70;;;;;;4937934;29;20434;-76
2022/04/02 11:42:15;;;;;;;4.37;2.80;;;7.80;82.60;;;;;;4937938;29;20443;-77
2022/04/02 11:44:52;;;;;;;3.73;2.10;;;7.80;82.30;;;;;;4952242;28;20586;-78
2022/04/02 11:47:28;;;;;;;2.63;2.30;;;7.80;82.20;;;;;;4936286;29;20482;-76
2022/04/02 11:50:05;;;;;;;5.20;3.80;;;7.90;82.60;;;;;;4936780;29;21006;-77
2022/04/02 11:52:50;;;;;;;3.40;3.00;;;7.80;82.50;;;;;;4937115;29;21001;-77
2022/04/02 11:55:20;;;;;;;3.13;2.60;;;7.70;82.90;;;;;;4936330;29;20825;-76
2022/04/02 11:58:06;;;;;;;3.60;3.30;;;7.60;82.30;;;;;;4936922;29;20475;-77
2022/04/02 12:00:37;;;;;;;4.40;3.40;;;7.60;82.30;;;;;;4952812;28;20987;-77
2022/04/02 12:03:20;;;;;;;3.00;2.70;;;7.60;82.40;;;;;;4938521;29;20431;-77
2022/04/02 12:05:52;;;;;;;3.60;2.97;;;7.70;81.60;;;;;;4936814;29;20475;-77
2022/04/02 12:08:28;;;;;;;4.30;3.87;;;7.70;81.80;;;;;;4952795;29;20546;-77
2022/04/02 12:10:58;;;;;;;4.60;2.90;;;7.80;82.00;;;;;;4936905;29;20446;-77
2022/04/02 12:13:27;;;;;;;3.50;2.97;;;7.90;81.10;;;;;;4938544;29;20463;-77
2022/04/02 12:16:04;;;;;;;3.27;2.77;;;8.10;81.50;;;;;;4937854;29;20463;-77
2022/04/02 12:18:33;;;;;;;3.73;1.93;;;8.20;81.40;;;;;;4951605;28;20458;-77
2022/04/02 12:21:07;;;;;;;3.90;2.70;;;8.20;81.50;;;;;;4936500;29;20455;-77
2022/04/02 12:23:36;;;;;;;3.57;2.73;;;8.20;81.50;;;;;;4937872;29;20973;-77
2022/04/02 12:26:08;;;;;;;5.40;4.07;;;8.20;80.80;;;;;;4936669;29;20513;-76
2022/04/02 12:28:45;;;;;;;4.97;3.60;;;8.10;80.30;;;;;;4951385;29;20444;-76
2022/04/02 12:31:14;;;;;;;3.90;3.40;;;8.00;79.70;;;;;;4953165;29;20929;-77
2022/04/02 12:33:51;;;;;;;8.40;7.47;;;7.90;80.20;;;;;;4952096;29;20592;-77
2022/04/02 12:36:30;;;;;;;4.30;3.60;;;7.80;80.80;;;;;;4944235;29;20443;-76
2022/04/02 12:39:04;;;;;;;3.47;2.30;;;7.80;80.80;;;;;;4940532;29;20899;-76
2022/04/02 12:41:44;;;;;;;2.80;2.40;;;7.70;80.30;;;;;;4941928;29;20830;-76
2022/04/02 12:44:13;;;;;;;3.20;2.60;;;7.60;80.40;;;;;;4937616;29;20984;-76
2022/04/02 12:46:42;;;;;;;3.27;2.50;;;7.60;80.60;;;;;;4937516;29;20478;-77
2022/04/02 12:49:27;;;;;;;2.67;2.33;;;7.50;81.00;;;;;;4938957;29;20459;-77
2022/04/02 12:52:11;;;;;;;3.17;2.30;;;7.40;81.30;;;;;;4936803;29;20509;-77
2022/04/02 12:54:44;;;;;;;3.00;2.20;;;7.40;81.60;;;;;;4937970;29;20495;-77
2022/04/02 12:57:15;;;;;;;2.43;2.13;;;7.40;82.10;;;;;;4936529;29;20469;-76
2022/04/02 12:59:44;;;;;;;2.50;2.20;;;7.50;82.50;;;;;;4935785;29;20466;-76
2022/04/02 13:02:21;;;;;;;2.73;2.30;;;7.50;83.60;;;;;;4936178;29;20542;-77
2022/04/02 13:04:53;;;;;;;3.20;2.03;;;7.60;82.50;;;;;;4936406;29;20483;-77
2022/04/02 13:07:23;;;;;;;2.47;2.00;;;7.60;81.30;;;;;;4936045;29;20447;-77
2022/04/02 13:09:56;;;;;;;2.93;2.10;;;7.60;80.70;;;;;;4935495;29;20486;-77
2022/04/02 13:12:26;;;;;;;2.70;1.83;;;7.70;81.30;;;;;;4935136;29;20546;-77
2022/04/02 13:15:03;;;;;;;3.93;1.67;;;7.80;80.90;;;;;;4934390;29;20478;-77
2022/04/02 13:17:40;;;;;;;2.70;1.73;;;7.80;79.80;;;;;;4936428;29;20478;-77
2022/04/02 13:20:29;;;;;;;4.50;2.30;;;7.80;79.80;;;;;;4932033;29;20515;-77
2022/04/02 13:22:57;;;;;;;3.37;2.00;;;7.80;78.70;;;;;;4932834;29;20527;-77
2022/04/02 13:25:29;;;;;;;2.53;1.97;;;7.70;77.40;;;;;;4934694;29;20475;-78
2022/04/02 13:28:30;;;;;;;2.50;2.00;;;7.60;76.80;;;;;;4936811;29;20441;-77
2022/04/02 13:30:59;;;;;;;2.80;1.37;;;7.60;76.80;;;;;;4937818;29;20527;-76
2022/04/02 13:34:03;;;;;;;3.43;2.07;;;7.50;75.30;;;;;;4940798;29;21039;-77
2022/04/02 13:36:43;;;;;;;3.23;1.90;;;7.50;75.40;;;;;;4925996;29;20462;-78
2022/04/02 13:39:19;;;;;;;2.63;1.83;;;7.60;75.20;;;;;;4955398;28;20481;-77
2022/04/02 13:41:52;;;;;;;3.23;1.90;;;7.70;75.30;;;;;;4939324;29;20565;-76